SAWJ/ULA METAR and TAF weather

Enter ICAO airport designator
Station Type Date Time Source
SAWJ METAR 2019/12/05 16:15 UTC NOAA

SAWJ 051615Z 23032G45KT 8000 -DS VCSH SCT032TCU SCT200 21/M03 Q1003


Station Type Date Time Source
SAWJ Decoded METAR 2019/12/05 16:15 UTC NOAA

San Julian Aerodrome, Argentina (SAWJ) 49-19S 067-45W 62M
Dec 05, 2019 - 11:15 AM EST / 2019.12.05 1615 UTC
Wind: from the SW (230 degrees) at 37 MPH (32 KT) gusting to 52 MPH (45 KT):0
Visibility: 4 mile(s):0
Sky conditions: partly cloudy
Weather: light duststorm; showers in the vicinity; Towering cumulus clouds observed
Temperature: 69 F (21 C)
Dew Point: 26 F (-3 C)
Relative Humidity: 19%
Pressure (altimeter): 29.62 in. Hg (1003 hPa)
ob: SAWJ 051615Z 23032G45KT 8000 -DS VCSH SCT032TCU SCT200 21/M03 Q1003
cycle: 16

Station Type Date Time Source
SAWJ TAF 2014/06/25 12:00 UTC NOAA

TAF SAWJ 251100Z 2512/2612 32025G35KT 9999 -RA BKN030 BKN045 TX06/2518Z TN02/2611Z
BECMG 2518/2520 29020G30KT NSW SCT030
BECMG 2609/2611 23020G30KT SHSN OVC015

Example: see airport list